sensor_id;sensor_type;location;lat;lon;timestamp;pressure;altitude;pressure_sealevel;temperature;humidity
83444;BME280;73374;41.170;-96.156;2024-02-15T00:01:13;96754.56;;;13.91;40.40
83444;BME280;73374;41.170;-96.156;2024-02-15T00:06:16;96750.75;;;14.00;39.96
83444;BME280;73374;41.170;-96.156;2024-02-15T00:11:20;96753.97;;;13.96;39.87
83444;BME280;73374;41.170;-96.156;2024-02-15T00:16:24;96761.50;;;13.71;40.45
83444;BME280;73374;41.170;-96.156;2024-02-15T00:21:28;96764.22;;;13.49;41.17
83444;BME280;73374;41.170;-96.156;2024-02-15T00:26:31;96770.34;;;13.28;41.69
83444;BME280;73374;41.170;-96.156;2024-02-15T00:31:35;96772.03;;;13.43;41.59
83444;BME280;73374;41.170;-96.156;2024-02-15T00:36:42;96765.91;;;13.22;42.04
83444;BME280;73374;41.170;-96.156;2024-02-15T00:41:45;96772.84;;;13.15;42.21
83444;BME280;73374;41.170;-96.156;2024-02-15T00:46:50;96773.13;;;12.99;43.21
83444;BME280;73374;41.170;-96.156;2024-02-15T00:51:53;96778.00;;;13.02;42.88
83444;BME280;73374;41.170;-96.156;2024-02-15T00:56:56;96775.09;;;12.90;42.93
83444;BME280;73374;41.170;-96.156;2024-02-15T01:02:01;96779.41;;;12.77;43.53
83444;BME280;73374;41.170;-96.156;2024-02-15T01:07:04;96787.78;;;12.72;43.75
83444;BME280;73374;41.170;-96.156;2024-02-15T01:12:07;96790.88;;;12.82;44.01
83444;BME280;73374;41.170;-96.156;2024-02-15T01:17:12;96779.78;;;12.74;43.79
83444;BME280;73374;41.170;-96.156;2024-02-15T01:22:15;96793.25;;;12.77;44.12
83444;BME280;73374;41.170;-96.156;2024-02-15T01:27:19;96795.47;;;12.80;44.08
83444;BME280;73374;41.170;-96.156;2024-02-15T01:32:23;96804.16;;;12.02;46.46
83444;BME280;73374;41.170;-96.156;2024-02-15T01:37:26;96799.53;;;11.68;47.24
83444;BME280;73374;41.170;-96.156;2024-02-15T01:42:30;96805.13;;;12.37;46.19
83444;BME280;73374;41.170;-96.156;2024-02-15T01:47:34;96798.53;;;12.62;45.81
83444;BME280;73374;41.170;-96.156;2024-02-15T01:52:38;96804.13;;;12.38;47.39
83444;BME280;73374;41.170;-96.156;2024-02-15T01:57:44;96808.44;;;12.31;47.63
83444;BME280;73374;41.170;-96.156;2024-02-15T02:02:49;96829.59;;;12.21;47.44
83444;BME280;73374;41.170;-96.156;2024-02-15T02:07:52;96852.72;;;11.36;48.47
83444;BME280;73374;41.170;-96.156;2024-02-15T02:12:55;96878.91;;;10.28;52.14
83444;BME280;73374;41.170;-96.156;2024-02-15T02:18:00;96895.88;;;9.44;55.55
83444;BME280;73374;41.170;-96.156;2024-02-15T02:23:07;96935.72;;;8.54;59.34
83444;BME280;73374;41.170;-96.156;2024-02-15T02:28:12;96938.22;;;7.95;62.60
83444;BME280;73374;41.170;-96.156;2024-02-15T02:33:15;96964.44;;;7.66;65.23
83444;BME280;73374;41.170;-96.156;2024-02-15T02:38:19;96972.66;;;7.00;67.86
83444;BME280;73374;41.170;-96.156;2024-02-15T02:43:23;96984.72;;;6.64;68.40
83444;BME280;73374;41.170;-96.156;2024-02-15T02:48:26;96990.72;;;6.37;68.50
83444;BME280;73374;41.170;-96.156;2024-02-15T02:53:29;96981.91;;;6.02;71.42
83444;BME280;73374;41.170;-96.156;2024-02-15T02:58:34;97019.44;;;5.68;73.08
83444;BME280;73374;41.170;-96.156;2024-02-15T03:03:37;97030.03;;;5.45;74.46
83444;BME280;73374;41.170;-96.156;2024-02-15T03:08:40;97041.16;;;5.17;75.33
83444;BME280;73374;41.170;-96.156;2024-02-15T03:13:45;97047.38;;;4.95;76.19
83444;BME280;73374;41.170;-96.156;2024-02-15T03:18:48;97081.38;;;4.39;76.52
83444;BME280;73374;41.170;-96.156;2024-02-15T03:23:51;97089.78;;;3.90;77.34
83444;BME280;73374;41.170;-96.156;2024-02-15T03:28:56;97093.09;;;3.81;76.78
83444;BME280;73374;41.170;-96.156;2024-02-15T03:33:59;97123.47;;;3.23;77.67
83444;BME280;73374;41.170;-96.156;2024-02-15T03:39:03;97130.53;;;2.98;77.50
83444;BME280;73374;41.170;-96.156;2024-02-15T03:44:07;97158.75;;;2.54;77.30
83444;BME280;73374;41.170;-96.156;2024-02-15T03:49:10;97210.38;;;2.38;77.97
83444;BME280;73374;41.170;-96.156;2024-02-15T03:54:13;97206.22;;;2.02;78.29
83444;BME280;73374;41.170;-96.156;2024-02-15T03:59:18;97210.38;;;1.92;78.90
83444;BME280;73374;41.170;-96.156;2024-02-15T04:04:22;97226.06;;;1.87;78.47
83444;BME280;73374;41.170;-96.156;2024-02-15T04:09:25;97227.97;;;1.72;78.38
83444;BME280;73374;41.170;-96.156;2024-02-15T04:14:29;97219.22;;;1.64;78.71
83444;BME280;73374;41.170;-96.156;2024-02-15T04:19:32;97258.50;;;1.75;78.34
83444;BME280;73374;41.170;-96.156;2024-02-15T04:24:36;97279.56;;;1.55;78.78
83444;BME280;73374;41.170;-96.156;2024-02-15T04:29:40;97284.06;;;1.51;78.39
83444;BME280;73374;41.170;-96.156;2024-02-15T04:34:44;97309.97;;;1.60;78.56
83444;BME280;73374;41.170;-96.156;2024-02-15T04:39:47;97352.63;;;1.10;77.59
83444;BME280;73374;41.170;-96.156;2024-02-15T04:44:51;97328.56;;;1.00;76.89
83444;BME280;73374;41.170;-96.156;2024-02-15T04:49:54;97357.31;;;1.03;77.45
83444;BME280;73374;41.170;-96.156;2024-02-15T04:54:57;97378.00;;;1.00;76.83
83444;BME280;73374;41.170;-96.156;2024-02-15T05:00:02;97380.22;;;0.79;76.79
83444;BME280;73374;41.170;-96.156;2024-02-15T05:05:06;97400.06;;;0.76;76.97
83444;BME280;73374;41.170;-96.156;2024-02-15T05:10:09;97416.63;;;0.70;77.70
83444;BME280;73374;41.170;-96.156;2024-02-15T05:15:15;97432.63;;;0.59;77.61
83444;BME280;73374;41.170;-96.156;2024-02-15T05:20:18;97448.75;;;0.47;76.99
83444;BME280;73374;41.170;-96.156;2024-02-15T05:25:22;97471.38;;;0.53;76.58
83444;BME280;73374;41.170;-96.156;2024-02-15T05:30:29;97473.13;;;0.53;76.11
83444;BME280;73374;41.170;-96.156;2024-02-15T05:35:32;97493.41;;;0.42;76.44
83444;BME280;73374;41.170;-96.156;2024-02-15T05:40:35;97499.16;;;0.31;75.47
83444;BME280;73374;41.170;-96.156;2024-02-15T05:45:40;97513.22;;;0.38;75.75
83444;BME280;73374;41.170;-96.156;2024-02-15T05:50:43;97525.00;;;0.26;75.93
83444;BME280;73374;41.170;-96.156;2024-02-15T05:55:46;97537.69;;;0.28;75.71
83444;BME280;73374;41.170;-96.156;2024-02-15T06:00:51;97540.97;;;0.30;75.62
83444;BME280;73374;41.170;-96.156;2024-02-15T06:05:54;97539.84;;;0.34;75.34
83444;BME280;73374;41.170;-96.156;2024-02-15T06:10:57;97553.28;;;0.09;75.93
83444;BME280;73374;41.170;-96.156;2024-02-15T06:16:02;97553.66;;;0.03;76.91
83444;BME280;73374;41.170;-96.156;2024-02-15T06:21:05;97553.38;;;0.08;76.91
83444;BME280;73374;41.170;-96.156;2024-02-15T06:26:09;97589.50;;;-0.13;77.04
83444;BME280;73374;41.170;-96.156;2024-02-15T06:31:13;97597.59;;;-0.20;77.13
83444;BME280;73374;41.170;-96.156;2024-02-15T06:36:16;97612.81;;;-0.19;77.15
83444;BME280;73374;41.170;-96.156;2024-02-15T06:41:19;97619.69;;;-0.35;76.96
83444;BME280;73374;41.170;-96.156;2024-02-15T06:46:27;97628.34;;;-0.52;77.53
83444;BME280;73374;41.170;-96.156;2024-02-15T06:51:30;97635.75;;;-0.63;77.61
83444;BME280;73374;41.170;-96.156;2024-02-15T06:56:36;97632.56;;;-0.82;78.06
83444;BME280;73374;41.170;-96.156;2024-02-15T07:01:41;97644.50;;;-0.83;77.76
83444;BME280;73374;41.170;-96.156;2024-02-15T07:06:44;97652.97;;;-0.82;77.67
83444;BME280;73374;41.170;-96.156;2024-02-15T07:11:47;97636.94;;;-1.00;77.97
83444;BME280;73374;41.170;-96.156;2024-02-15T07:16:54;97637.75;;;-1.00;77.87
83444;BME280;73374;41.170;-96.156;2024-02-15T07:21:58;97641.34;;;-0.88;77.79
83444;BME280;73374;41.170;-96.156;2024-02-15T07:27:01;97665.56;;;-0.95;77.42
83444;BME280;73374;41.170;-96.156;2024-02-15T07:32:06;97688.16;;;-0.89;77.91
83444;BME280;73374;41.170;-96.156;2024-02-15T07:37:09;97712.09;;;-1.07;76.99
83444;BME280;73374;41.170;-96.156;2024-02-15T07:42:12;97735.47;;;-0.99;76.45
83444;BME280;73374;41.170;-96.156;2024-02-15T07:47:17;97746.06;;;-1.07;75.82
83444;BME280;73374;41.170;-96.156;2024-02-15T07:52:20;97736.06;;;-0.94;74.73
83444;BME280;73374;41.170;-96.156;2024-02-15T07:57:23;97737.28;;;-1.01;74.64
83444;BME280;73374;41.170;-96.156;2024-02-15T08:02:28;97737.22;;;-1.00;73.90
83444;BME280;73374;41.170;-96.156;2024-02-15T08:07:31;97756.03;;;-1.02;73.22
83444;BME280;73374;41.170;-96.156;2024-02-15T08:12:34;97799.19;;;-1.15;73.24
83444;BME280;73374;41.170;-96.156;2024-02-15T08:17:39;97796.72;;;-1.16;74.04
83444;BME280;73374;41.170;-96.156;2024-02-15T08:22:43;97801.88;;;-1.18;74.12
83444;BME280;73374;41.170;-96.156;2024-02-15T08:27:48;97800.44;;;-1.24;74.49
83444;BME280;73374;41.170;-96.156;2024-02-15T08:32:52;97812.03;;;-1.34;74.39
83444;BME280;73374;41.170;-96.156;2024-02-15T08:37:56;97812.47;;;-1.43;74.12
83444;BME280;73374;41.170;-96.156;2024-02-15T08:42:59;97808.13;;;-1.41;74.09
83444;BME280;73374;41.170;-96.156;2024-02-15T08:48:04;97834.50;;;-1.59;73.84
83444;BME280;73374;41.170;-96.156;2024-02-15T08:53:07;97837.78;;;-1.57;74.06
83444;BME280;73374;41.170;-96.156;2024-02-15T08:58:10;97832.25;;;-1.65;73.64
83444;BME280;73374;41.170;-96.156;2024-02-15T09:03:15;97858.63;;;-1.49;73.58
83444;BME280;73374;41.170;-96.156;2024-02-15T09:08:18;97865.66;;;-1.71;73.31
83444;BME280;73374;41.170;-96.156;2024-02-15T09:13:21;97902.50;;;-1.78;73.74
83444;BME280;73374;41.170;-96.156;2024-02-15T09:18:26;97904.69;;;-1.71;72.50
83444;BME280;73374;41.170;-96.156;2024-02-15T09:23:29;97921.22;;;-1.98;71.43
83444;BME280;73374;41.170;-96.156;2024-02-15T09:28:32;97896.75;;;-2.01;71.18
83444;BME280;73374;41.170;-96.156;2024-02-15T09:33:37;97901.41;;;-2.29;72.24
83444;BME280;73374;41.170;-96.156;2024-02-15T09:38:40;97890.63;;;-2.34;71.92
83444;BME280;73374;41.170;-96.156;2024-02-15T09:43:43;97902.16;;;-2.46;72.44
83444;BME280;73374;41.170;-96.156;2024-02-15T09:48:50;97893.63;;;-2.45;73.56
83444;BME280;73374;41.170;-96.156;2024-02-15T09:53:57;97904.50;;;-2.81;73.95
83444;BME280;73374;41.170;-96.156;2024-02-15T09:59:00;97907.78;;;-2.77;73.59
83444;BME280;73374;41.170;-96.156;2024-02-15T10:04:06;97923.53;;;-2.89;73.44
83444;BME280;73374;41.170;-96.156;2024-02-15T10:09:28;97926.84;;;-3.08;72.96
83444;BME280;73374;41.170;-96.156;2024-02-15T10:14:31;97935.84;;;-3.21;73.45
83444;BME280;73374;41.170;-96.156;2024-02-15T10:19:36;97923.00;;;-3.38;74.18
83444;BME280;73374;41.170;-96.156;2024-02-15T10:24:39;97924.13;;;-3.67;74.93
83444;BME280;73374;41.170;-96.156;2024-02-15T10:29:42;97920.19;;;-3.74;75.53
83444;BME280;73374;41.170;-96.156;2024-02-15T10:34:47;97921.00;;;-3.96;76.04
83444;BME280;73374;41.170;-96.156;2024-02-15T10:40:04;97942.72;;;-3.88;75.99
83444;BME280;73374;41.170;-96.156;2024-02-15T10:45:08;97960.91;;;-3.99;76.27
83444;BME280;73374;41.170;-96.156;2024-02-15T10:50:14;97979.56;;;-4.02;76.01
83444;BME280;73374;41.170;-96.156;2024-02-15T10:55:25;97991.56;;;-4.29;76.72
83444;BME280;73374;41.170;-96.156;2024-02-15T11:00:32;98009.19;;;-4.26;77.00
83444;BME280;73374;41.170;-96.156;2024-02-15T11:05:37;98026.59;;;-4.40;76.84
83444;BME280;73374;41.170;-96.156;2024-02-15T11:10:42;98034.47;;;-4.47;76.25
83444;BME280;73374;41.170;-96.156;2024-02-15T11:15:46;98060.88;;;-4.55;76.67
83444;BME280;73374;41.170;-96.156;2024-02-15T11:20:51;98071.09;;;-4.56;77.00
83444;BME280;73374;41.170;-96.156;2024-02-15T11:25:55;98081.66;;;-4.68;76.37
83444;BME280;73374;41.170;-96.156;2024-02-15T11:30:57;98096.69;;;-4.64;76.42
83444;BME280;73374;41.170;-96.156;2024-02-15T11:36:05;98106.88;;;-4.65;76.70
83444;BME280;73374;41.170;-96.156;2024-02-15T11:41:09;98135.00;;;-4.73;76.90
83444;BME280;73374;41.170;-96.156;2024-02-15T11:46:12;98141.91;;;-4.78;76.96
83444;BME280;73374;41.170;-96.156;2024-02-15T11:51:31;98144.50;;;-4.79;76.96
83444;BME280;73374;41.170;-96.156;2024-02-15T11:56:53;98150.03;;;-4.95;77.20
83444;BME280;73374;41.170;-96.156;2024-02-15T12:01:57;98159.09;;;-4.88;77.39
83444;BME280;73374;41.170;-96.156;2024-02-15T12:07:01;98169.22;;;-4.88;77.12
83444;BME280;73374;41.170;-96.156;2024-02-15T12:12:05;98169.47;;;-4.95;77.04
83444;BME280;73374;41.170;-96.156;2024-02-15T12:17:09;98173.91;;;-5.02;77.01
83444;BME280;73374;41.170;-96.156;2024-02-15T12:22:14;98183.16;;;-5.01;77.58
83444;BME280;73374;41.170;-96.156;2024-02-15T12:27:17;98187.41;;;-5.01;77.37
83444;BME280;73374;41.170;-96.156;2024-02-15T12:32:21;98210.25;;;-5.04;77.28
83444;BME280;73374;41.170;-96.156;2024-02-15T12:37:26;98206.91;;;-5.05;77.62
83444;BME280;73374;41.170;-96.156;2024-02-15T12:42:29;98225.00;;;-5.17;77.90
83444;BME280;73374;41.170;-96.156;2024-02-15T12:47:32;98223.34;;;-5.18;79.23
83444;BME280;73374;41.170;-96.156;2024-02-15T12:52:38;98217.59;;;-5.25;78.88
83444;BME280;73374;41.170;-96.156;2024-02-15T12:57:43;98210.31;;;-5.35;78.94
83444;BME280;73374;41.170;-96.156;2024-02-15T13:02:47;98221.75;;;-5.22;79.33
83444;BME280;73374;41.170;-96.156;2024-02-15T13:07:53;98211.84;;;-5.30;79.11
83444;BME280;73374;41.170;-96.156;2024-02-15T13:12:57;98211.00;;;-5.30;79.29
83444;BME280;73374;41.170;-96.156;2024-02-15T13:18:01;98216.78;;;-5.25;79.61
83444;BME280;73374;41.170;-96.156;2024-02-15T13:23:06;98216.88;;;-5.28;79.54
83444;BME280;73374;41.170;-96.156;2024-02-15T13:28:10;98229.38;;;-5.24;80.06
83444;BME280;73374;41.170;-96.156;2024-02-15T13:33:14;98217.69;;;-5.28;79.76
83444;BME280;73374;41.170;-96.156;2024-02-15T13:38:19;98224.13;;;-5.16;79.56
83444;BME280;73374;41.170;-96.156;2024-02-15T13:43:22;98228.03;;;-5.06;79.18
83444;BME280;73374;41.170;-96.156;2024-02-15T13:48:25;98228.97;;;-5.08;78.67
83444;BME280;73374;41.170;-96.156;2024-02-15T13:53:32;98216.44;;;-4.83;77.67
83444;BME280;73374;41.170;-96.156;2024-02-15T13:58:35;98222.47;;;-4.32;76.81
83444;BME280;73374;41.170;-96.156;2024-02-15T14:03:38;98212.84;;;-3.71;74.55
83444;BME280;73374;41.170;-96.156;2024-02-15T14:08:43;98203.91;;;-3.09;71.06
83444;BME280;73374;41.170;-96.156;2024-02-15T14:13:46;98207.00;;;-2.79;69.15
83444;BME280;73374;41.170;-96.156;2024-02-15T14:18:49;98213.16;;;-2.19;68.55
83444;BME280;73374;41.170;-96.156;2024-02-15T14:23:54;98229.22;;;-1.36;65.92
83444;BME280;73374;41.170;-96.156;2024-02-15T14:28:57;98228.19;;;-1.93;65.71
83444;BME280;73374;41.170;-96.156;2024-02-15T14:34:00;98205.44;;;-1.55;65.14
83444;BME280;73374;41.170;-96.156;2024-02-15T14:39:05;98201.63;;;-1.07;63.94
83444;BME280;73374;41.170;-96.156;2024-02-15T14:44:08;98195.91;;;-1.12;63.04
83444;BME280;73374;41.170;-96.156;2024-02-15T14:49:11;98177.22;;;0.96;58.11
83444;BME280;73374;41.170;-96.156;2024-02-15T14:54:16;98193.22;;;0.34;58.61
83444;BME280;73374;41.170;-96.156;2024-02-15T14:59:25;98192.16;;;0.88;57.26
83444;BME280;73374;41.170;-96.156;2024-02-15T15:04:28;98206.69;;;1.03;55.58
83444;BME280;73374;41.170;-96.156;2024-02-15T15:09:32;98213.91;;;1.44;55.02
83444;BME280;73374;41.170;-96.156;2024-02-15T15:14:35;98219.13;;;2.91;50.60
83444;BME280;73374;41.170;-96.156;2024-02-15T15:19:39;98249.50;;;2.40;51.06
83444;BME280;73374;41.170;-96.156;2024-02-15T15:24:43;98266.50;;;2.71;50.39
83444;BME280;73374;41.170;-96.156;2024-02-15T15:29:46;98258.59;;;4.53;46.33
83444;BME280;73374;41.170;-96.156;2024-02-15T15:34:49;98253.22;;;3.77;46.96
83444;BME280;73374;41.170;-96.156;2024-02-15T15:39:54;98247.00;;;5.35;43.50
83444;BME280;73374;41.170;-96.156;2024-02-15T15:44:57;98242.78;;;7.00;41.78
83444;BME280;73374;41.170;-96.156;2024-02-15T15:50:00;98267.78;;;4.70;44.98
83444;BME280;73374;41.170;-96.156;2024-02-15T15:55:07;98261.72;;;7.88;40.29
83444;BME280;73374;41.170;-96.156;2024-02-15T16:00:11;98247.88;;;5.10;43.26
83444;BME280;73374;41.170;-96.156;2024-02-15T16:05:15;98245.19;;;7.68;39.79
83444;BME280;73374;41.170;-96.156;2024-02-15T16:10:20;98233.78;;;9.28;38.08
83444;BME280;73374;41.170;-96.156;2024-02-15T16:15:23;98233.78;;;8.97;36.49
83444;BME280;73374;41.170;-96.156;2024-02-15T16:20:27;98241.59;;;9.38;37.11
83444;BME280;73374;41.170;-96.156;2024-02-15T16:25:31;98245.22;;;10.91;34.00
83444;BME280;73374;41.170;-96.156;2024-02-15T16:30:35;98273.78;;;9.75;36.87
83444;BME280;73374;41.170;-96.156;2024-02-15T16:35:38;98280.31;;;8.78;36.14
83444;BME280;73374;41.170;-96.156;2024-02-15T16:40:43;98272.59;;;10.85;34.09
83444;BME280;73374;41.170;-96.156;2024-02-15T16:45:46;98277.56;;;12.44;32.46
83444;BME280;73374;41.170;-96.156;2024-02-15T16:50:49;98269.91;;;10.77;30.88
83444;BME280;73374;41.170;-96.156;2024-02-15T16:55:53;98302.97;;;11.41;32.16
83444;BME280;73374;41.170;-96.156;2024-02-15T17:00:56;98294.38;;;11.68;34.11
83444;BME280;73374;41.170;-96.156;2024-02-15T17:05:59;98271.97;;;13.00;30.06
83444;BME280;73374;41.170;-96.156;2024-02-15T17:11:04;98276.44;;;14.42;29.84
83444;BME280;73374;41.170;-96.156;2024-02-15T17:16:07;98264.81;;;11.60;29.58
83444;BME280;73374;41.170;-96.156;2024-02-15T17:21:10;98259.59;;;13.70;27.43
83444;BME280;73374;41.170;-96.156;2024-02-15T17:26:15;98271.00;;;13.61;26.23
83444;BME280;73374;41.170;-96.156;2024-02-15T17:31:18;98281.09;;;13.22;28.64
83444;BME280;73374;41.170;-96.156;2024-02-15T17:36:21;98266.44;;;14.30;28.55
83444;BME280;73374;41.170;-96.156;2024-02-15T17:41:26;98260.22;;;14.31;27.90
83444;BME280;73374;41.170;-96.156;2024-02-15T17:46:30;98262.06;;;15.43;25.87
83444;BME280;73374;41.170;-96.156;2024-02-15T17:51:33;98260.13;;;15.84;24.59
83444;BME280;73374;41.170;-96.156;2024-02-15T17:56:38;98250.47;;;15.37;25.92
83444;BME280;73374;41.170;-96.156;2024-02-15T18:01:41;98237.34;;;16.15;25.05
83444;BME280;73374;41.170;-96.156;2024-02-15T18:06:48;98215.94;;;16.87;23.40
83444;BME280;73374;41.170;-96.156;2024-02-15T18:11:52;98218.88;;;14.18;27.01
83444;BME280;73374;41.170;-96.156;2024-02-15T18:16:55;98202.06;;;16.18;26.02
83444;BME280;73374;41.170;-96.156;2024-02-15T18:21:58;98201.03;;;12.27;23.95
83444;BME280;73374;41.170;-96.156;2024-02-15T18:27:03;98182.25;;;17.20;24.52
83444;BME280;73374;41.170;-96.156;2024-02-15T18:32:07;98174.00;;;16.79;23.25
83444;BME280;73374;41.170;-96.156;2024-02-15T18:37:10;98159.88;;;17.24;25.11
83444;BME280;73374;41.170;-96.156;2024-02-15T18:42:14;98118.75;;;16.57;25.41
83444;BME280;73374;41.170;-96.156;2024-02-15T18:47:18;98105.28;;;16.08;24.03
83444;BME280;73374;41.170;-96.156;2024-02-15T18:52:21;98099.25;;;17.62;22.98
83444;BME280;73374;41.170;-96.156;2024-02-15T18:57:26;98074.44;;;17.28;23.19
83444;BME280;73374;41.170;-96.156;2024-02-15T19:02:29;98077.59;;;16.58;23.45
83444;BME280;73374;41.170;-96.156;2024-02-15T19:07:32;98074.69;;;17.33;21.43
83444;BME280;73374;41.170;-96.156;2024-02-15T19:12:37;98074.84;;;17.46;21.12
83444;BME280;73374;41.170;-96.156;2024-02-15T19:17:40;98081.19;;;17.95;20.91
83444;BME280;73374;41.170;-96.156;2024-02-15T19:22:44;98060.06;;;16.73;22.64
83444;BME280;73374;41.170;-96.156;2024-02-15T19:27:48;98065.53;;;17.08;21.79
83444;BME280;73374;41.170;-96.156;2024-02-15T19:32:52;98059.72;;;17.12;21.75
83444;BME280;73374;41.170;-96.156;2024-02-15T19:37:55;98025.09;;;17.24;22.91
83444;BME280;73374;41.170;-96.156;2024-02-15T19:42:59;98014.22;;;17.27;21.21
83444;BME280;73374;41.170;-96.156;2024-02-15T19:48:03;98000.94;;;16.48;21.97
83444;BME280;73374;41.170;-96.156;2024-02-15T19:53:07;97988.41;;;18.90;20.22
83444;BME280;73374;41.170;-96.156;2024-02-15T19:58:12;97975.03;;;16.09;23.60
83444;BME280;73374;41.170;-96.156;2024-02-15T20:03:15;97991.38;;;17.48;21.97
83444;BME280;73374;41.170;-96.156;2024-02-15T20:08:18;97994.56;;;16.36;22.83
83444;BME280;73374;41.170;-96.156;2024-02-15T20:13:23;97994.59;;;15.23;22.17
83444;BME280;73374;41.170;-96.156;2024-02-15T20:18:26;98001.22;;;15.94;20.29
83444;BME280;73374;41.170;-96.156;2024-02-15T20:23:29;97974.50;;;17.86;20.37
83444;BME280;73374;41.170;-96.156;2024-02-15T20:28:34;97969.94;;;14.16;21.68
83444;BME280;73374;41.170;-96.156;2024-02-15T20:33:37;97947.25;;;16.44;20.86
83444;BME280;73374;41.170;-96.156;2024-02-15T20:38:40;97939.50;;;16.21;21.50
83444;BME280;73374;41.170;-96.156;2024-02-15T20:43:45;97941.72;;;15.04;24.30
83444;BME280;73374;41.170;-96.156;2024-02-15T20:48:48;97937.94;;;15.30;22.12
83444;BME280;73374;41.170;-96.156;2024-02-15T20:53:51;97941.56;;;14.75;23.78
83444;BME280;73374;41.170;-96.156;2024-02-15T20:58:56;97944.38;;;13.87;23.57
83444;BME280;73374;41.170;-96.156;2024-02-15T21:03:59;97940.91;;;14.50;23.09
83444;BME280;73374;41.170;-96.156;2024-02-15T21:09:02;97948.72;;;15.27;22.51
83444;BME280;73374;41.170;-96.156;2024-02-15T21:14:07;97940.25;;;12.54;22.60
83444;BME280;73374;41.170;-96.156;2024-02-15T21:19:10;97930.97;;;14.45;23.82
83444;BME280;73374;41.170;-96.156;2024-02-15T21:24:14;97926.28;;;15.70;23.92
83444;BME280;73374;41.170;-96.156;2024-02-15T21:29:19;97925.81;;;13.66;23.19
83444;BME280;73374;41.170;-96.156;2024-02-15T21:34:22;97916.72;;;15.39;21.45
83444;BME280;73374;41.170;-96.156;2024-02-15T21:39:25;97924.41;;;14.41;21.83
83444;BME280;73374;41.170;-96.156;2024-02-15T21:44:30;97948.03;;;14.87;21.29
83444;BME280;73374;41.170;-96.156;2024-02-15T21:49:33;97952.06;;;12.99;21.80
83444;BME280;73374;41.170;-96.156;2024-02-15T21:54:36;97918.19;;;13.40;26.70
83444;BME280;73374;41.170;-96.156;2024-02-15T21:59:41;97943.13;;;12.43;22.43
83444;BME280;73374;41.170;-96.156;2024-02-15T22:04:44;97926.19;;;13.38;22.91
83444;BME280;73374;41.170;-96.156;2024-02-15T22:09:47;97937.41;;;11.45;23.63
83444;BME280;73374;41.170;-96.156;2024-02-15T22:14:52;97910.69;;;13.20;22.20
83444;BME280;73374;41.170;-96.156;2024-02-15T22:19:55;97943.28;;;13.49;22.74
83444;BME280;73374;41.170;-96.156;2024-02-15T22:24:58;97943.53;;;12.64;20.19
83444;BME280;73374;41.170;-96.156;2024-02-15T22:30:03;97936.94;;;12.36;21.60
83444;BME280;73374;41.170;-96.156;2024-02-15T22:35:07;97930.47;;;11.54;22.27
83444;BME280;73374;41.170;-96.156;2024-02-15T22:40:10;97929.13;;;11.06;23.88
83444;BME280;73374;41.170;-96.156;2024-02-15T22:45:15;97943.69;;;10.81;24.58
83444;BME280;73374;41.170;-96.156;2024-02-15T22:50:18;97949.53;;;9.74;25.52
83444;BME280;73374;41.170;-96.156;2024-02-15T22:55:21;97934.66;;;9.76;25.79
83444;BME280;73374;41.170;-96.156;2024-02-15T23:00:26;97920.84;;;8.99;26.54
83444;BME280;73374;41.170;-96.156;2024-02-15T23:05:29;97916.59;;;9.18;25.62
83444;BME280;73374;41.170;-96.156;2024-02-15T23:10:33;97921.75;;;8.40;27.84
83444;BME280;73374;41.170;-96.156;2024-02-15T23:15:38;97936.75;;;7.76;28.29
83444;BME280;73374;41.170;-96.156;2024-02-15T23:20:41;97942.31;;;6.77;29.91
83444;BME280;73374;41.170;-96.156;2024-02-15T23:25:44;97941.97;;;6.38;31.16
83444;BME280;73374;41.170;-96.156;2024-02-15T23:30:48;97949.53;;;6.08;30.62
83444;BME280;73374;41.170;-96.156;2024-02-15T23:35:51;97948.13;;;5.92;32.38
83444;BME280;73374;41.170;-96.156;2024-02-15T23:40:55;97952.75;;;5.65;33.77
83444;BME280;73374;41.170;-96.156;2024-02-15T23:45:59;97947.88;;;4.68;34.37
83444;BME280;73374;41.170;-96.156;2024-02-15T23:51:02;97952.31;;;4.42;33.98
83444;BME280;73374;41.170;-96.156;2024-02-15T23:56:06;97955.25;;;4.48;33.36
